createdAt,value
2023-02-22T00:02:29.306Z,11.23
2023-02-22T00:07:30.917Z,11.05
2023-02-22T00:12:32.529Z,10.50
2023-02-22T00:17:34.601Z,11.13
2023-02-22T00:22:36.258Z,10.73
2023-02-22T00:27:37.881Z,10.40
2023-02-22T00:32:39.564Z,10.20
2023-02-22T00:37:44.051Z,11.35
2023-02-22T00:42:46.481Z,9.52
2023-02-22T00:47:48.841Z,9.38
2023-02-22T00:52:51.112Z,10.35
2023-02-22T00:57:53.845Z,9.60
2023-02-22T01:02:56.880Z,9.75
2023-02-22T01:08:00.360Z,10.57
2023-02-22T01:13:08.424Z,9.98
2023-02-22T01:18:11.675Z,10.07
2023-02-22T01:23:14.396Z,9.50
2023-02-22T01:28:16.066Z,10.38
2023-02-22T01:33:17.764Z,10.32
2023-02-22T01:38:19.580Z,10.90
2023-02-22T01:43:27.810Z,9.63
2023-02-22T01:48:34.769Z,10.82
2023-02-22T01:53:49.315Z,9.70
2023-02-22T01:58:57.111Z,10.82
2023-02-22T02:04:02.586Z,10.27
2023-02-22T02:09:40.021Z,9.68
2023-02-22T02:14:43.903Z,10.15
2023-02-22T02:20:08.353Z,9.95
2023-02-22T02:25:18.073Z,8.85
2023-02-22T02:30:32.336Z,9.70
2023-02-22T02:35:46.936Z,9.27
2023-02-22T02:41:16.601Z,9.05
2023-02-22T02:46:38.970Z,9.73
2023-02-22T02:51:47.027Z,10.32
2023-02-22T02:56:48.773Z,10.07
2023-02-22T03:02:07.609Z,9.65
2023-02-22T03:07:38.514Z,9.18
2023-02-22T03:12:58.640Z,9.27
2023-02-22T03:18:09.236Z,9.98
2023-02-22T03:23:25.243Z,8.95
2023-02-22T03:28:29.458Z,10.00
2023-02-22T03:33:44.086Z,10.98
2023-02-22T03:38:47.722Z,11.02
2023-02-22T03:43:54.839Z,10.55
2023-02-22T03:49:25.887Z,10.30
2023-02-22T03:54:29.152Z,10.48
2023-02-22T03:59:31.905Z,10.15
2023-02-22T04:04:34.838Z,10.73
2023-02-22T04:09:37.275Z,9.85
2023-02-22T04:14:39.225Z,10.45
2023-02-22T04:19:42.053Z,9.98
2023-02-22T04:24:43.774Z,11.05
2023-02-22T04:29:45.590Z,10.20
2023-02-22T04:34:47.300Z,11.23
2023-02-22T04:39:49.188Z,10.05
2023-02-22T04:44:52.194Z,10.35
2023-02-22T04:49:54.518Z,10.82
2023-02-22T04:54:56.193Z,10.75
2023-02-22T04:59:58.251Z,11.23
2023-02-22T05:05:00.233Z,11.48
2023-02-22T05:10:02.982Z,11.10
2023-02-22T05:15:07.135Z,10.25
2023-02-22T05:20:19.518Z,12.00
2023-02-22T05:25:21.520Z,12.10
2023-02-22T05:30:27.161Z,11.45
2023-02-22T05:35:29.403Z,10.68
2023-02-22T05:40:31.788Z,12.93
2023-02-22T05:45:33.894Z,12.98
2023-02-22T05:50:35.516Z,11.68
2023-02-22T05:55:37.136Z,19.30
2023-02-22T06:00:38.722Z,24.85
2023-02-22T06:05:40.746Z,22.40
2023-02-22T06:10:42.333Z,24.58
2023-02-22T06:15:43.938Z,36.58
2023-02-22T06:20:45.514Z,27.05
2023-02-22T06:25:47.226Z,17.92
2023-02-22T06:30:48.845Z,14.77
2023-02-22T06:35:50.490Z,14.25
2023-02-22T06:40:52.170Z,14.98
2023-02-22T06:45:53.806Z,12.38
2023-02-22T06:50:55.489Z,12.48
2023-02-22T06:55:57.111Z,12.45
2023-02-22T07:00:58.732Z,12.13
2023-02-22T07:06:00.341Z,12.75
2023-02-22T07:11:02.036Z,12.20
2023-02-22T07:16:03.872Z,11.88
2023-02-22T07:21:06.255Z,13.05
2023-02-22T07:26:07.862Z,13.13
2023-02-22T07:31:09.452Z,14.93
2023-02-22T07:36:11.107Z,14.02
2023-02-22T07:41:13.200Z,13.93
2023-02-22T07:46:15.082Z,13.68
2023-02-22T07:51:18.135Z,12.63
2023-02-22T07:56:19.975Z,13.45
2023-02-22T08:01:21.599Z,13.30
2023-02-22T08:06:25.726Z,13.30
2023-02-22T08:11:27.473Z,12.23
2023-02-22T08:16:29.084Z,12.13
2023-02-22T08:21:30.688Z,13.10
2023-02-22T08:26:32.270Z,13.80
2023-02-22T08:31:33.921Z,13.25
2023-02-22T08:36:35.627Z,12.02
2023-02-22T08:41:37.348Z,13.05
2023-02-22T08:46:39.427Z,12.68
2023-02-22T08:51:41.039Z,13.15
2023-02-22T08:56:42.624Z,12.30
2023-02-22T09:01:44.282Z,11.65
2023-02-22T09:06:51.639Z,11.23
2023-02-22T09:11:53.416Z,12.15
2023-02-22T09:16:55.263Z,13.65
2023-02-22T09:21:59.230Z,12.40
2023-02-22T09:27:01.141Z,11.93
2023-02-22T09:32:04.386Z,12.18
2023-02-22T09:37:08.756Z,12.18
2023-02-22T09:42:41.641Z,12.20
2023-02-22T09:47:49.652Z,11.73
2023-02-22T09:53:31.800Z,10.75
2023-02-22T09:58:40.210Z,11.50
2023-02-22T10:04:04.068Z,10.35
2023-02-22T10:09:08.935Z,9.93
2023-02-22T10:14:38.740Z,10.65
2023-02-22T10:19:46.269Z,10.85
2023-02-22T10:25:02.353Z,10.90
2023-02-22T10:30:33.965Z,11.40
2023-02-22T10:35:38.653Z,12.50
2023-02-22T10:40:46.203Z,10.68
2023-02-22T10:45:47.971Z,12.50
2023-02-22T10:50:50.567Z,9.93
2023-02-22T10:56:19.175Z,11.77
2023-02-22T11:01:23.803Z,11.23
2023-02-22T11:06:25.472Z,12.32
2023-02-22T11:11:29.204Z,11.40
2023-02-22T11:16:36.206Z,11.43
2023-02-22T11:21:39.007Z,12.00
2023-02-22T11:26:49.137Z,12.50
2023-02-22T11:31:51.379Z,11.82
2023-02-22T11:36:53.167Z,12.23
2023-02-22T11:41:56.372Z,12.43
2023-02-22T11:47:06.853Z,11.88
2023-02-22T11:52:14.374Z,11.85
2023-02-22T11:57:30.482Z,12.23
2023-02-22T12:02:56.922Z,13.45
2023-02-22T12:08:20.060Z,13.40
2023-02-22T12:13:56.694Z,13.25
2023-02-22T12:18:58.273Z,12.85
2023-02-22T12:24:14.395Z,13.10
2023-02-22T12:29:37.624Z,13.52
2023-02-22T12:34:52.348Z,12.80
2023-02-22T12:39:56.445Z,12.88
2023-02-22T12:45:11.667Z,13.00
2023-02-22T12:50:20.081Z,13.38
2023-02-22T12:55:45.799Z,13.30
2023-02-22T13:00:55.518Z,14.80
2023-02-22T13:06:18.460Z,14.95
2023-02-22T13:11:37.008Z,14.60
2023-02-22T13:16:41.714Z,14.98
2023-02-22T13:21:47.919Z,15.43
2023-02-22T13:27:13.891Z,15.02
2023-02-22T13:32:33.316Z,15.00
2023-02-22T13:37:59.746Z,15.05
2023-02-22T13:43:16.479Z,15.80
2023-02-22T13:48:18.161Z,15.68
2023-02-22T13:53:32.932Z,14.95
2023-02-22T13:58:48.148Z,15.15
2023-02-22T14:03:49.794Z,16.10
2023-02-22T14:08:51.437Z,15.55
2023-02-22T14:13:58.009Z,15.35
2023-02-22T14:19:20.319Z,14.57
2023-02-22T14:24:22.025Z,13.65
2023-02-22T14:29:23.693Z,12.48
2023-02-22T14:34:48.652Z,11.95
2023-02-22T14:39:51.332Z,11.02
2023-02-22T14:45:17.273Z,10.52
2023-02-22T14:50:43.802Z,10.32
2023-02-22T14:56:02.363Z,9.52
2023-02-22T15:01:20.237Z,9.60
2023-02-22T15:06:28.679Z,9.02
2023-02-22T15:11:35.578Z,8.90
2023-02-22T15:16:38.692Z,8.63
2023-02-22T15:21:46.145Z,7.78
2023-02-22T15:27:00.577Z,7.78
2023-02-22T15:32:49.894Z,7.78
2023-02-22T15:38:15.869Z,7.10
2023-02-22T15:43:28.433Z,7.45
2023-02-22T15:48:31.620Z,7.32
2023-02-22T15:53:42.921Z,7.30
2023-02-22T15:58:47.600Z,6.57
2023-02-22T16:03:56.352Z,6.40
2023-02-22T16:09:01.020Z,7.35
2023-02-22T16:14:05.565Z,6.80
2023-02-22T16:19:22.080Z,6.45
2023-02-22T16:24:35.486Z,6.20
2023-02-22T16:29:37.234Z,7.15
2023-02-22T16:34:38.884Z,6.38
2023-02-22T16:39:41.735Z,5.90
2023-02-22T16:44:43.416Z,8.50
2023-02-22T16:49:48.662Z,7.30
2023-02-22T16:54:51.918Z,7.50
2023-02-22T16:59:55.402Z,8.05
2023-02-22T17:04:57.500Z,7.03
2023-02-22T17:09:59.310Z,7.22
2023-02-22T17:15:03.418Z,7.28
2023-02-22T17:20:11.505Z,7.70
2023-02-22T17:25:21.829Z,7.97
2023-02-22T17:30:24.126Z,8.45
2023-02-22T17:35:26.982Z,9.18
2023-02-22T17:40:29.070Z,8.35
2023-02-22T17:45:31.216Z,9.18
2023-02-22T17:50:36.193Z,10.85
2023-02-22T17:55:42.338Z,11.65
2023-02-22T18:00:47.705Z,10.85
2023-02-22T18:05:51.242Z,11.07
2023-02-22T18:10:56.507Z,11.52
2023-02-22T18:16:00.068Z,13.43
2023-02-22T18:21:02.601Z,14.20
2023-02-22T18:26:11.066Z,13.70
2023-02-22T18:31:17.119Z,15.18
2023-02-22T18:36:23.600Z,14.90
2023-02-22T18:41:25.744Z,14.18
2023-02-22T18:46:29.909Z,14.23
2023-02-22T18:51:31.725Z,15.27
2023-02-22T18:56:34.022Z,16.77
2023-02-22T19:01:38.675Z,17.02
2023-02-22T19:06:41.308Z,16.58
2023-02-22T19:11:46.763Z,14.27
2023-02-22T19:16:51.616Z,14.30
2023-02-22T19:21:56.246Z,14.25
2023-02-22T19:26:59.935Z,13.70
2023-02-22T19:32:01.664Z,18.85
2023-02-22T19:37:05.424Z,21.80
2023-02-22T19:42:09.590Z,21.77
2023-02-22T19:47:11.174Z,21.92
2023-02-22T19:52:12.783Z,22.50
2023-02-22T19:57:14.420Z,23.23
2023-02-22T20:02:16.131Z,20.67
2023-02-22T20:07:17.735Z,21.95
2023-02-22T20:12:19.341Z,19.50
2023-02-22T20:17:20.964Z,20.48
2023-02-22T20:22:22.882Z,17.73
2023-02-22T20:27:24.552Z,16.75
2023-02-22T20:32:28.467Z,17.10
2023-02-22T20:37:31.330Z,16.52
2023-02-22T20:42:32.953Z,16.23
2023-02-22T20:47:34.625Z,14.90
2023-02-22T20:52:36.311Z,16.48
2023-02-22T20:57:38.307Z,14.43
2023-02-22T21:02:40.123Z,18.17
2023-02-22T21:07:41.762Z,15.48
2023-02-22T21:12:45.143Z,15.45
2023-02-22T21:17:47.549Z,16.20
2023-02-22T21:22:50.824Z,15.10
2023-02-22T21:27:52.950Z,15.82
2023-02-22T21:32:55.379Z,15.77
2023-02-22T21:37:57.230Z,15.85
2023-02-22T21:42:58.856Z,15.98
2023-02-22T21:48:00.449Z,15.00
2023-02-22T21:53:02.055Z,15.10
2023-02-22T21:58:03.755Z,14.40
2023-02-22T22:03:12.720Z,16.30
2023-02-22T22:08:19.626Z,14.98
2023-02-22T22:13:22.672Z,15.18
2023-02-22T22:18:24.327Z,15.27
2023-02-22T22:23:27.044Z,15.80
2023-02-22T22:28:28.686Z,15.50
2023-02-22T22:33:30.436Z,15.30
2023-02-22T22:38:33.361Z,15.48
2023-02-22T22:43:37.206Z,16.20
2023-02-22T22:48:39.890Z,17.10
2023-02-22T22:53:44.146Z,16.05
2023-02-22T22:58:51.482Z,16.20
2023-02-22T23:03:56.165Z,15.52
2023-02-22T23:09:11.759Z,15.68
2023-02-22T23:14:21.643Z,16.23
2023-02-22T23:19:23.281Z,17.38
2023-02-22T23:24:27.520Z,17.90
2023-02-22T23:29:32.286Z,18.20
2023-02-22T23:34:35.850Z,17.48
2023-02-22T23:39:37.743Z,16.40
2023-02-22T23:44:40.173Z,15.35
2023-02-22T23:49:45.142Z,16.83
2023-02-22T23:54:46.910Z,18.73
2023-02-22T23:59:51.325Z,17.35
